Time;durP1;ratioP1;P1;durP2;ratioP2;P2;SDS_P1;SDS_P2;PMS_P1;PMS_P2;Temp;Humidity;BMP_temperature;BMP_pressure;BME280_temperature;BME280_humidity;BME280_pressure;Samples;Min_cycle;Max_cycle;Signal;HPM_P1;HPM_P2
2021/06/10 00:02:27;;;;;;;18.00;15.55;;;;;;;14.11;70.39;99178.42;124923;1093;64309;-82
2021/06/10 00:04:55;;;;;;;17.57;14.70;;;;;;;14.10;70.53;99171.38;124913;1093;64344;-81
2021/06/10 00:07:23;;;;;;;19.10;14.20;;;;;;;14.06;70.64;99176.13;124879;1092;64329;-82
2021/06/10 00:09:51;;;;;;;19.30;14.27;;;;;;;14.04;70.53;99180.75;124954;1092;64361;-82
2021/06/10 00:12:19;;;;;;;17.73;15.80;;;;;;;14.00;70.88;99180.11;124901;1093;64364;-81
2021/06/10 00:14:48;;;;;;;17.30;15.30;;;;;;;13.97;71.03;99180.36;124912;1093;64271;-82
2021/06/10 00:17:16;;;;;;;20.30;16.00;;;;;;;13.91;70.99;99180.00;124916;1092;64216;-82
2021/06/10 00:19:44;;;;;;;17.87;15.50;;;;;;;13.87;71.13;99173.16;124934;1093;64427;-82
2021/06/10 00:22:12;;;;;;;16.83;13.90;;;;;;;13.81;71.10;99174.49;124951;1093;64264;-81
2021/06/10 00:24:40;;;;;;;17.30;15.30;;;;;;;13.74;71.32;99171.42;124925;1093;64224;-82
2021/06/10 00:27:07;;;;;;;16.63;14.10;;;;;;;13.67;71.39;99169.36;124827;1093;64452;-81
2021/06/10 00:29:35;;;;;;;16.50;14.80;;;;;;;13.63;71.62;99170.55;125011;1093;64661;-82
2021/06/10 00:32:02;;;;;;;16.20;13.73;;;;;;;13.60;71.61;99174.31;124966;1093;64354;-80
2021/06/10 00:34:29;;;;;;;15.13;13.53;;;;;;;13.59;71.75;99168.12;124909;1093;64284;-81
2021/06/10 00:36:57;;;;;;;17.85;13.70;;;;;;;13.60;71.83;99163.61;124927;1093;64280;-82
2021/06/10 00:39:24;;;;;;;17.57;14.20;;;;;;;13.56;71.81;99165.68;124889;1093;64188;-82
2021/06/10 00:41:51;;;;;;;16.70;14.90;;;;;;;13.54;71.92;99164.94;124815;1092;64284;-82
2021/06/10 00:44:18;;;;;;;15.80;13.53;;;;;;;13.51;71.95;99164.33;124913;1092;64290;-82
2021/06/10 00:46:46;;;;;;;17.00;14.23;;;;;;;13.45;71.92;99156.74;124912;1093;64766;-82
2021/06/10 00:49:13;;;;;;;17.07;15.13;;;;;;;13.43;72.28;99164.03;124881;1093;64293;-82
2021/06/10 00:51:40;;;;;;;18.13;12.97;;;;;;;13.39;72.09;99164.27;124899;1093;64276;-81
2021/06/10 00:54:08;;;;;;;14.73;12.70;;;;;;;13.37;72.16;99168.03;124865;1093;64357;-82
2021/06/10 00:56:36;;;;;;;16.50;14.23;;;;;;;13.33;72.32;99164.74;124945;1093;64293;-81
2021/06/10 00:59:04;;;;;;;16.17;13.97;;;;;;;13.32;72.67;99160.38;124909;1093;64412;-81
2021/06/10 01:01:31;;;;;;;15.63;14.03;;;;;;;13.33;72.54;99159.39;124901;1093;64274;-82
2021/06/10 01:03:58;;;;;;;16.13;14.07;;;;;;;13.32;72.38;99160.38;124895;1093;64298;-82
2021/06/10 01:06:39;;;;;;;15.60;13.50;;;;;;;13.24;72.34;99164.55;124831;1093;64381;-82
2021/06/10 01:09:20;;;;;;;17.10;14.00;;;;;;;13.13;72.69;99160.84;124921;1093;65479;-80
2021/06/10 01:12:09;;;;;;;14.50;12.80;;;;;;;13.07;72.60;99157.79;124930;1093;64284;-81
2021/06/10 01:14:48;;;;;;;15.23;13.37;;;;;;;13.05;72.92;99163.23;124943;1092;64188;-83
2021/06/10 01:17:16;;;;;;;15.33;13.73;;;;;;;13.06;73.02;99159.62;124929;1093;64284;-82
2021/06/10 01:20:07;;;;;;;16.27;13.93;;;;;;;13.07;73.23;99152.44;124888;1093;64279;-82
2021/06/10 01:22:37;;;;;;;15.30;13.70;;;;;;;13.07;73.31;99160.47;124956;1093;64382;-82
2021/06/10 01:25:23;;;;;;;16.27;14.50;;;;;;;13.07;73.30;99158.64;124894;1093;64271;-82
2021/06/10 01:27:58;;;;;;;15.77;14.07;;;;;;;13.07;73.22;99168.49;124903;1093;64297;-81
2021/06/10 01:30:58;;;;;;;15.73;14.13;;;;;;;13.06;73.29;99169.44;124915;1093;64267;-81
2021/06/10 01:33:28;;;;;;;;;;;;;;;12.97;73.29;99162.96;124835;1092;64214;-81
2021/06/10 01:36:03;;;;;;;18.05;16.20;;;;;;;12.93;73.52;99166.84;124881;1093;64268;-81
2021/06/10 01:38:32;;;;;;;16.47;14.87;;;;;;;12.89;73.44;99163.53;124922;1093;64265;-82
2021/06/10 01:41:01;;;;;;;17.23;14.00;;;;;;;12.83;73.42;99155.96;124858;1093;64380;-82
2021/06/10 01:43:35;;;;;;;16.30;13.90;;;;;;;12.79;73.66;99162.48;124945;1093;64201;-83
2021/06/10 01:46:03;;;;;;;16.30;14.60;;;;;;;12.76;73.60;99167.22;124880;1093;64287;-82
2021/06/10 01:48:33;;;;;;;18.33;14.30;;;;;;;12.74;73.71;99160.17;124939;1093;64373;-82
2021/06/10 01:51:03;;;;;;;17.10;13.40;;;;;;;12.74;73.91;99160.17;124889;1093;64213;-82
2021/06/10 01:53:31;;;;;;;16.93;13.77;;;;;;;12.78;73.89;99154.59;124900;1093;64220;-81
2021/06/10 01:56:01;;;;;;;15.97;14.33;;;;;;;12.78;73.92;99159.95;124891;1093;64324;-82
2021/06/10 01:58:30;;;;;;;17.43;14.33;;;;;;;12.77;73.73;99155.55;124903;1093;64229;-81
2021/06/10 02:00:58;;;;;;;18.27;16.03;;;;;;;12.73;73.50;99154.92;124882;1093;64274;-82
2021/06/10 02:03:28;;;;;;;16.37;14.10;;;;;;;12.66;73.80;99150.98;124921;1093;64226;-82
2021/06/10 02:05:57;;;;;;;16.55;14.55;;;;;;;12.61;73.80;99142.45;124932;1093;64245;-82
2021/06/10 02:08:25;;;;;;;16.87;14.83;;;;;;;12.59;74.03;99145.25;124842;1093;64245;-82
2021/06/10 02:10:56;;;;;;;16.57;14.43;;;;;;;12.56;74.09;99144.59;124932;1093;64449;-82
2021/06/10 02:13:31;;;;;;;17.63;14.10;;;;;;;12.52;74.11;99142.15;125034;1093;64346;-82
2021/06/10 02:16:03;;;;;;;15.87;13.83;;;;;;;12.47;74.24;99144.30;124922;1093;64284;-82
2021/06/10 02:18:33;;;;;;;16.53;14.03;;;;;;;12.56;74.45;99152.62;124982;1093;64399;-81
2021/06/10 02:21:05;;;;;;;18.58;15.28;;;;;;;12.69;74.72;99153.43;124874;1093;64264;-82
2021/06/10 02:23:36;;;;;;;18.23;15.97;;;;;;;12.78;74.60;99151.92;124918;1093;64309;-82
2021/06/10 02:26:05;;;;;;;18.87;15.60;;;;;;;12.85;74.51;99155.83;124959;1093;64291;-82
2021/06/10 02:28:33;;;;;;;18.20;14.97;;;;;;;12.82;74.21;99150.72;124944;1093;64265;-82
2021/06/10 02:31:03;;;;;;;17.20;14.20;;;;;;;12.74;74.07;99157.50;124945;1093;64284;-82
2021/06/10 02:33:32;;;;;;;16.07;13.43;;;;;;;12.68;74.15;99152.58;124890;1093;64300;-83
2021/06/10 02:35:59;;;;;;;17.00;14.40;;;;;;;12.65;74.01;99152.81;124776;1094;64348;-82
2021/06/10 02:38:30;;;;;;;19.23;14.90;;;;;;;12.64;74.27;99145.77;124908;1092;64638;-81
2021/06/10 02:40:59;;;;;;;15.10;13.20;;;;;;;12.66;74.27;99157.18;124931;1093;64296;-81
2021/06/10 02:43:30;;;;;;;16.45;13.35;;;;;;;12.68;74.16;99160.60;124891;1093;64239;-82
2021/06/10 02:45:59;;;;;;;21.23;15.13;;;;;;;12.65;74.20;99168.86;124961;1093;64268;-82
2021/06/10 02:48:30;;;;;;;20.67;15.17;;;;;;;12.69;74.49;99165.00;124869;1093;64425;-82
2021/06/10 02:50:58;;;;;;;17.75;15.75;;;;;;;12.72;74.30;99170.13;124891;1093;64351;-82
2021/06/10 02:53:29;;;;;;;16.65;14.95;;;;;;;12.77;74.38;99168.91;124891;1093;64362;-80
2021/06/10 02:56:00;;;;;;;22.03;15.87;;;;;;;12.85;74.35;99162.06;124937;1093;64271;-82
2021/06/10 02:58:29;;;;;;;18.37;14.70;;;;;;;12.91;74.14;99171.45;124853;1093;64268;-81
2021/06/10 03:00:57;;;;;;;19.53;14.33;;;;;;;12.90;73.98;99161.70;124951;1093;64195;-82
2021/06/10 03:03:26;;;;;;;17.03;13.47;;;;;;;12.88;74.00;99172.53;124925;1093;64342;-82
2021/06/10 03:05:57;;;;;;;17.30;13.97;;;;;;;12.87;74.01;99176.15;124957;1093;64229;-81
2021/06/10 03:08:25;;;;;;;18.23;13.37;;;;;;;12.92;73.99;99171.32;125025;1093;64185;-82
2021/06/10 03:10:59;;;;;;;19.90;14.37;;;;;;;12.99;74.22;99181.59;124923;1093;64271;-81
2021/06/10 03:13:32;;;;;;;16.67;13.60;;;;;;;13.04;74.00;99182.95;124893;1093;64348;-82
2021/06/10 03:16:02;;;;;;;16.50;13.10;;;;;;;13.10;74.32;99179.81;124969;1093;64287;-81
2021/06/10 03:18:29;;;;;;;;;;;;;;;13.15;73.99;99182.15;124849;1093;64268;-81
2021/06/10 03:21:00;;;;;;;16.63;13.27;;;;;;;13.17;74.08;99183.74;124875;1092;64270;-81
2021/06/10 03:23:28;;;;;;;16.87;13.10;;;;;;;13.22;73.79;99188.76;124948;1093;64188;-82
2021/06/10 03:25:59;;;;;;;14.73;12.40;;;;;;;13.28;73.66;99180.30;124852;1093;64428;-82
2021/06/10 03:28:28;;;;;;;15.50;11.53;;;;;;;13.41;73.35;99180.23;124850;1093;64366;-82
2021/06/10 03:30:56;;;;;;;14.98;12.35;;;;;;;13.48;73.37;99184.16;124945;1093;64294;-82
2021/06/10 03:33:25;;;;;;;15.20;13.40;;;;;;;14.29;72.75;99176.97;124924;1093;64276;-82
2021/06/10 03:35:54;;;;;;;17.43;13.17;;;;;;;15.29;71.21;99164.36;124960;1092;64268;-82
2021/06/10 03:38:24;;;;;;;14.13;11.68;;;;;;;16.06;69.79;99168.63;124813;1093;64223;-82
2021/06/10 03:40:54;;;;;;;14.25;11.15;;;;;;;16.86;68.45;99167.81;124912;1093;64603;-82
2021/06/10 03:43:22;;;;;;;;;;;;;;;17.57;67.04;99166.73;124943;1093;64242;-82
2021/06/10 03:45:50;;;;;;;15.37;11.03;;;;;;;18.26;66.08;99165.61;124883;1093;64213;-80
2021/06/10 03:48:18;;;;;;;12.13;10.20;;;;;;;18.78;64.12;99163.27;124944;1093;64210;-82
2021/06/10 03:50:47;;;;;;;11.87;10.67;;;;;;;19.07;63.64;99157.69;124858;1093;64265;-81
2021/06/10 03:53:15;;;;;;;13.83;10.77;;;;;;;19.53;63.02;99163.84;124916;1093;64260;-82
2021/06/10 03:55:42;;;;;;;12.80;10.50;;;;;;;20.15;61.57;99154.88;124881;1092;64769;-81
2021/06/10 03:58:09;;;;;;;12.70;10.57;;;;;;;20.68;60.63;99158.39;124912;1092;64280;-81
2021/06/10 04:00:36;;;;;;;11.23;10.10;;;;;;;21.18;59.25;99161.06;124980;1093;64268;-81
2021/06/10 04:03:04;;;;;;;14.07;10.17;;;;;;;21.64;57.71;99166.92;124844;1092;64290;-81
2021/06/10 04:05:31;;;;;;;11.17;10.00;;;;;;;21.98;57.00;99168.56;124944;1093;64405;-82
2021/06/10 04:07:59;;;;;;;13.63;10.13;;;;;;;22.41;56.00;99171.05;124905;1093;64153;-82
2021/06/10 04:10:27;;;;;;;10.87;9.87;;;;;;;22.72;54.81;99173.83;124951;1093;64185;-82
2021/06/10 04:12:54;;;;;;;10.30;9.00;;;;;;;23.06;54.61;99168.09;124801;1093;64268;-82
2021/06/10 04:15:22;;;;;;;11.03;9.67;;;;;;;23.23;53.91;99166.97;124832;1093;64351;-81
2021/06/10 04:17:49;;;;;;;11.40;8.80;;;;;;;23.27;52.96;99170.16;124926;1093;64296;-81
2021/06/10 04:20:17;;;;;;;9.93;8.93;;;;;;;23.31;52.33;99165.23;124935;1093;64248;-82
2021/06/10 04:22:44;;;;;;;9.87;8.87;;;;;;;23.53;52.10;99171.70;124971;1093;64191;-82
2021/06/10 04:25:12;;;;;;;8.60;7.70;;;;;;;23.91;51.31;99166.30;125003;1093;64624;-82
2021/06/10 04:27:40;;;;;;;10.65;8.90;;;;;;;24.17;50.80;99168.59;124854;1093;64329;-81
2021/06/10 04:30:09;;;;;;;10.85;8.75;;;;;;;24.25;49.80;99166.66;124878;1093;64287;-82
2021/06/10 04:32:39;;;;;;;9.60;8.13;;;;;;;24.62;49.18;99178.53;125031;1093;64279;-83
2021/06/10 04:35:07;;;;;;;8.98;7.80;;;;;;;24.81;48.45;99174.38;124988;1093;64306;-83
2021/06/10 04:37:34;;;;;;;9.87;8.83;;;;;;;24.98;48.46;99174.99;125128;1093;64266;-81
2021/06/10 04:40:04;;;;;;;9.40;7.83;;;;;;;24.96;47.90;99171.61;125017;1093;64290;-81
2021/06/10 04:42:31;;;;;;;;;;;;;;;25.06;47.86;99174.88;125047;1093;64409;-81
2021/06/10 04:44:59;;;;;;;11.07;9.97;;;;;;;25.38;47.58;99168.16;124970;1093;64641;-81
2021/06/10 04:47:26;;;;;;;12.53;10.20;;;;;;;25.37;47.31;99168.34;124911;1093;64216;-81
2021/06/10 04:49:54;;;;;;;11.90;10.70;;;;;;;25.67;46.76;99170.94;124953;1093;64265;-81
2021/06/10 04:52:22;;;;;;;12.60;9.97;;;;;;;25.87;45.91;99165.70;124877;1093;64328;-81
2021/06/10 04:54:50;;;;;;;14.70;10.73;;;;;;;26.00;45.47;99168.53;124909;1093;64357;-81
2021/06/10 04:57:18;;;;;;;11.48;10.20;;;;;;;26.04;45.12;99165.21;124971;1093;64274;-81
2021/06/10 04:59:46;;;;;;;13.55;10.55;;;;;;;26.14;44.81;99170.31;124911;1093;64242;-82
2021/06/10 05:02:13;;;;;;;12.80;10.65;;;;;;;26.23;44.75;99166.39;124882;1093;64284;-82
2021/06/10 05:04:40;;;;;;;12.77;10.50;;;;;;;26.34;44.26;99166.89;124843;1093;64286;-82
2021/06/10 05:07:11;;;;;;;9.60;8.77;;;;;;;26.45;44.04;99169.05;124923;1093;64654;-81
2021/06/10 05:09:38;;;;;;;11.47;10.43;;;;;;;26.53;43.25;99168.08;124895;1093;64271;-82
2021/06/10 05:12:06;;;;;;;12.63;10.87;;;;;;;26.56;43.54;99173.14;124970;1093;64267;-82
2021/06/10 05:14:34;;;;;;;10.90;8.93;;;;;;;26.69;43.06;99170.47;124890;1093;64285;-82
2021/06/10 05:17:01;;;;;;;10.93;9.87;;;;;;;26.74;42.54;99167.98;124903;1093;64293;-81
2021/06/10 05:19:28;;;;;;;9.80;8.90;;;;;;;26.80;42.70;99167.16;124899;1093;64341;-81
2021/06/10 05:21:55;;;;;;;9.90;9.00;;;;;;;26.88;42.79;99157.94;124924;1093;64245;-82
2021/06/10 05:24:23;;;;;;;10.40;9.37;;;;;;;26.88;42.06;99166.14;124937;1093;64271;-82
2021/06/10 05:26:51;;;;;;;11.23;10.10;;;;;;;27.00;42.22;99160.94;124915;1093;64287;-81
2021/06/10 05:29:18;;;;;;;11.77;9.37;;;;;;;26.81;42.03;99160.66;124941;1093;64348;-81
2021/06/10 05:31:45;;;;;;;10.27;9.27;;;;;;;26.85;41.61;99174.76;124769;1093;64266;-82
2021/06/10 05:34:12;;;;;;;10.90;9.83;;;;;;;27.05;41.47;99166.64;124938;1093;64364;-81
2021/06/10 05:36:40;;;;;;;12.27;10.03;;;;;;;27.18;40.87;99157.67;124903;1093;64242;-84
2021/06/10 05:39:07;;;;;;;12.50;10.63;;;;;;;27.07;40.36;99167.30;124871;1092;64370;-81
2021/06/10 05:41:35;;;;;;;10.77;9.50;;;;;;;27.04;40.79;99168.55;125009;1093;64275;-81
2021/06/10 05:44:03;;;;;;;11.87;10.50;;;;;;;27.04;40.35;99165.81;125483;1093;64287;-82
2021/06/10 05:46:30;;;;;;;10.80;9.70;;;;;;;27.06;40.68;99158.21;125016;1093;64338;-83
2021/06/10 05:48:58;;;;;;;14.23;9.23;;;;;;;27.10;40.56;99155.93;125148;1093;64358;-86
2021/06/10 05:51:26;;;;;;;14.97;9.37;;;;;;;27.14;40.63;99158.03;125363;1093;64248;-87
2021/06/10 05:53:53;;;;;;;10.90;9.87;;;;;;;27.07;40.78;99150.88;125384;1092;64357;-87
2021/06/10 05:56:21;;;;;;;10.93;9.80;;;;;;;26.99;41.07;99157.38;125363;1093;64382;-87
2021/06/10 05:58:48;;;;;;;10.37;8.83;;;;;;;27.31;40.83;99149.50;125417;1093;64181;-87
2021/06/10 06:01:15;;;;;;;12.63;9.60;;;;;;;27.52;40.18;99154.80;125404;1093;64464;-83
2021/06/10 06:03:44;;;;;;;14.77;9.83;;;;;;;27.69;40.13;99152.48;125365;1093;64278;-83
2021/06/10 06:06:12;;;;;;;;;;;;;;;27.93;39.32;99156.52;125459;1093;64326;-90
2021/06/10 06:08:39;;;;;;;10.87;9.77;;;;;;;27.99;39.22;99155.69;125599;1093;64380;-84
2021/06/10 06:11:06;;;;;;;10.40;9.40;;;;;;;28.10;39.32;99158.84;125088;1093;64284;-85
2021/06/10 06:14:06;;;;;;;10.20;8.90;;;;;;;28.08;38.77;99153.56;125399;1092;64278;-89
2021/06/10 06:16:22;;;;;;;10.17;9.17;;;;;;;28.06;38.28;99163.05;125899;1093;64268;-88
2021/06/10 06:18:50;;;;;;;11.80;8.17;;;;;;;27.82;38.07;99167.27;125201;1093;64370;-86
2021/06/10 06:21:20;;;;;;;9.83;8.77;;;;;;;27.74;38.72;99165.55;125797;1092;64326;-92
2021/06/10 06:23:48;;;;;;;9.87;8.87;;;;;;;27.75;38.15;99162.62;126287;1093;64326;-92
2021/06/10 06:26:15;;;;;;;9.40;8.50;;;;;;;27.67;38.77;99157.31;126047;1093;64271;-87
2021/06/10 06:28:43;;;;;;;13.23;7.63;;;;;;;27.84;38.68;99167.92;125257;1093;64300;-88
2021/06/10 06:31:11;;;;;;;8.97;8.17;;;;;;;27.88;38.50;99167.27;125278;1093;64360;-85
2021/06/10 06:33:38;;;;;;;10.07;8.37;;;;;;;27.82;38.43;99167.27;125054;1093;64291;-85
2021/06/10 06:36:07;;;;;;;12.37;8.57;;;;;;;27.78;38.64;99164.09;125120;1092;64297;-84
2021/06/10 06:38:35;;;;;;;11.65;8.13;;;;;;;27.85;38.75;99161.38;125177;1093;64290;-84
2021/06/10 06:41:03;;;;;;;16.83;9.03;;;;;;;27.80;38.50;99172.92;124930;1093;64313;-85
2021/06/10 06:43:31;;;;;;;10.03;8.10;;;;;;;27.82;38.44;99175.49;124986;1093;64325;-84
2021/06/10 06:45:59;;;;;;;11.03;8.33;;;;;;;27.96;38.57;99163.47;125403;1093;64241;-92
2021/06/10 06:48:28;;;;;;;10.03;7.80;;;;;;;27.84;38.35;99167.92;125068;1093;64369;-91
2021/06/10 06:50:56;;;;;;;;;;;;;;;27.76;38.47;99167.03;124813;1093;64363;-83
2021/06/10 06:53:23;;;;;;;9.10;7.77;;;;;;;27.68;38.69;99169.98;125002;1093;64640;-83
2021/06/10 06:55:50;;;;;;;11.03;8.07;;;;;;;27.77;38.71;99167.87;124974;1093;64282;-84
2021/06/10 06:58:18;;;;;;;9.20;7.23;;;;;;;27.77;38.86;99167.87;124915;1093;64309;-84
2021/06/10 07:00:45;;;;;;;7.97;7.23;;;;;;;27.77;38.43;99165.13;124935;1093;64271;-84
2021/06/10 07:03:12;;;;;;;11.43;7.10;;;;;;;27.65;38.42;99169.53;124970;1092;64275;-83
2021/06/10 07:05:39;;;;;;;11.93;7.43;;;;;;;27.60;39.05;99169.34;124986;1093;64303;-84
2021/06/10 07:08:07;;;;;;;10.70;6.85;;;;;;;27.69;38.45;99165.34;125002;1093;64283;-84
2021/06/10 07:10:34;;;;;;;9.17;7.17;;;;;;;27.67;38.71;99171.01;124895;1094;64431;-83
2021/06/10 07:13:02;;;;;;;8.73;7.20;;;;;;;27.57;38.92;99174.17;124855;1093;64261;-83
2021/06/10 07:15:29;;;;;;;8.13;6.53;;;;;;;27.64;39.02;99174.17;124960;1093;64635;-83
2021/06/10 07:17:57;;;;;;;9.60;6.90;;;;;;;27.63;38.25;99174.39;124982;1093;64271;-83
2021/06/10 07:20:24;;;;;;;8.27;6.47;;;;;;;27.60;38.87;99170.18;124878;1093;64352;-84
2021/06/10 07:22:51;;;;;;;8.17;6.63;;;;;;;27.57;38.77;99176.91;124875;1093;64563;-84
2021/06/10 07:25:19;;;;;;;9.20;6.20;;;;;;;27.61;38.61;99176.49;124992;1093;64293;-82
2021/06/10 07:27:46;;;;;;;10.03;6.37;;;;;;;27.47;38.40;99176.47;124972;1093;64273;-82
2021/06/10 07:30:14;;;;;;;7.63;6.67;;;;;;;27.21;38.51;99171.77;124969;1093;64223;-82
2021/06/10 07:32:41;;;;;;;8.87;6.17;;;;;;;26.80;39.06;99178.09;124995;1093;64323;-83
2021/06/10 07:35:09;;;;;;;9.17;5.80;;;;;;;26.38;38.44;99187.28;124945;1092;64606;-83
2021/06/10 07:37:36;;;;;;;10.10;5.73;;;;;;;25.92;38.29;99182.33;124994;1093;64284;-84
2021/06/10 07:40:04;;;;;;;9.50;5.90;;;;;;;25.53;38.82;99183.61;125109;1093;64265;-82
2021/06/10 07:42:31;;;;;;;10.43;5.90;;;;;;;25.31;39.37;99186.33;125043;1093;64246;-82
2021/06/10 07:44:58;;;;;;;6.93;5.43;;;;;;;25.29;39.99;99182.94;124915;1093;64273;-82
2021/06/10 07:47:25;;;;;;;8.23;5.20;;;;;;;25.18;39.43;99184.30;124993;1093;64412;-83
2021/06/10 07:49:53;;;;;;;7.93;4.77;;;;;;;24.85;38.56;99188.46;125053;1093;64287;-84
2021/06/10 07:52:20;;;;;;;6.20;4.27;;;;;;;24.60;38.83;99187.94;125091;1093;64208;-84
2021/06/10 07:54:47;;;;;;;5.50;4.77;;;;;;;24.55;39.08;99188.48;124916;1093;64194;-83
2021/06/10 07:57:14;;;;;;;8.77;5.30;;;;;;;24.57;39.06;99196.48;124864;1093;64242;-83
2021/06/10 07:59:42;;;;;;;9.75;4.95;;;;;;;24.59;39.69;99186.22;124987;1093;64405;-83
2021/06/10 08:02:09;;;;;;;7.95;5.55;;;;;;;24.73;40.67;99188.11;124989;1093;64344;-83
2021/06/10 08:04:36;;;;;;;9.60;6.63;;;;;;;24.66;39.82;99187.17;125049;1093;64310;-83
2021/06/10 08:07:05;;;;;;;7.70;5.43;;;;;;;24.59;40.20;99187.06;124963;1093;64193;-83
2021/06/10 08:09:32;;;;;;;10.60;7.10;;;;;;;24.61;40.08;99192.34;124961;1093;64364;-84
2021/06/10 08:12:01;;;;;;;7.43;5.70;;;;;;;24.49;39.74;99191.97;124901;1093;64242;-83
2021/06/10 08:14:29;;;;;;;6.37;5.70;;;;;;;24.60;40.12;99193.38;124988;1093;64361;-83
2021/06/10 08:16:57;;;;;;;10.00;6.50;;;;;;;24.49;39.40;99181.08;124909;1093;64268;-82
2021/06/10 08:19:26;;;;;;;8.45;5.70;;;;;;;24.46;40.04;99187.74;125050;1093;64191;-85
2021/06/10 08:21:53;;;;;;;8.13;6.13;;;;;;;24.61;39.56;99185.00;124951;1093;64271;-83
2021/06/10 08:24:20;;;;;;;8.57;5.87;;;;;;;24.52;39.81;99186.98;124984;1093;64294;-83
2021/06/10 08:26:48;;;;;;;8.77;6.23;;;;;;;24.45;39.77;99188.76;124966;1093;64280;-82
2021/06/10 08:29:16;;;;;;;7.03;6.03;;;;;;;24.46;39.75;99193.20;124924;1093;64784;-83
2021/06/10 08:31:44;;;;;;;9.77;5.83;;;;;;;24.46;39.86;99192.33;124950;1093;64331;-82
2021/06/10 08:34:11;;;;;;;8.03;5.90;;;;;;;24.49;39.94;99190.09;124985;1093;64389;-83
2021/06/10 08:36:39;;;;;;;7.07;5.50;;;;;;;24.62;40.49;99185.84;124885;1093;64384;-83
2021/06/10 08:39:06;;;;;;;9.13;6.40;;;;;;;24.67;39.81;99183.39;124917;1093;64217;-83
2021/06/10 08:41:35;;;;;;;7.43;5.60;;;;;;;24.86;40.23;99179.27;124899;1093;64271;-83
2021/06/10 08:44:02;;;;;;;6.80;5.70;;;;;;;24.81;39.86;99187.17;124997;1093;64316;-84
2021/06/10 08:46:31;;;;;;;5.75;4.10;;;;;;;24.80;38.95;99180.84;124912;1093;64243;-83
2021/06/10 08:48:58;;;;;;;9.17;4.60;;;;;;;24.82;39.23;99180.67;124968;1093;64363;-83
2021/06/10 08:51:26;;;;;;;3.77;3.40;;;;;;;24.88;38.02;99191.67;124897;1093;64188;-83
2021/06/10 08:53:56;;;;;;;3.70;3.40;;;;;;;24.77;38.22;99192.13;124921;1093;64262;-83
2021/06/10 08:56:27;;;;;;;7.20;3.40;;;;;;;24.92;38.15;99175.77;124956;1094;64245;-84
2021/06/10 08:58:54;;;;;;;4.10;3.70;;;;;;;25.15;38.18;99178.36;124991;1093;64272;-83
2021/06/10 09:01:22;;;;;;;5.63;3.60;;;;;;;25.04;37.98;99185.16;124878;1093;64290;-83
2021/06/10 09:03:49;;;;;;;6.60;3.83;;;;;;;25.18;38.56;99181.56;124875;1093;64316;-84
2021/06/10 09:06:19;;;;;;;3.30;2.97;;;;;;;25.59;37.28;99180.97;124939;1091;64487;-83
2021/06/10 09:08:48;;;;;;;3.00;2.50;;;;;;;25.81;36.98;99184.52;124824;1093;64278;-83
2021/06/10 09:11:22;;;;;;;4.23;3.00;;;;;;;25.93;36.49;99184.84;124908;1093;64408;-83
2021/06/10 09:13:53;;;;;;;5.50;3.27;;;;;;;25.79;36.84;99183.86;125050;1093;64357;-84
2021/06/10 09:16:36;;;;;;;5.03;3.27;;;;;;;25.57;36.82;99184.93;125027;1093;64268;-84
2021/06/10 09:19:08;;;;;;;5.93;3.07;;;;;;;25.27;36.83;99178.72;125010;1093;64281;-84
2021/06/10 09:21:57;;;;;;;3.43;2.70;;;;;;;25.15;37.38;99181.09;125014;1093;64281;-83
2021/06/10 09:24:33;;;;;;;3.83;3.20;;;;;;;25.31;37.68;99180.88;124964;1092;64334;-82
2021/06/10 09:27:09;;;;;;;4.80;2.75;;;;;;;25.62;37.14;99186.03;125014;1093;64354;-83
2021/06/10 09:29:40;;;;;;;4.43;2.73;;;;;;;25.82;36.81;99178.00;124959;1093;64271;-83
2021/06/10 09:32:26;;;;;;;4.77;2.30;;;;;;;25.78;35.00;99186.81;124952;1092;64216;-83
2021/06/10 09:35:04;;;;;;;4.70;2.40;;;;;;;25.97;34.52;99174.39;125030;1093;64315;-83
2021/06/10 09:37:34;;;;;;;4.70;2.20;;;;;;;26.16;34.42;99176.42;125084;1092;64348;-83
2021/06/10 09:40:07;;;;;;;3.30;2.40;;;;;;;26.53;34.35;99173.55;125053;1093;64511;-83
2021/06/10 09:42:40;;;;;;;3.13;2.47;;;;;;;26.87;34.50;99173.50;125008;1092;64284;-83
2021/06/10 09:45:17;;;;;;;2.73;2.53;;;;;;;27.05;33.90;99174.85;124991;1093;64223;-83
2021/06/10 09:47:50;;;;;;;3.57;2.70;;;;;;;26.86;33.99;99184.67;124965;1092;64461;-84
2021/06/10 09:50:32;;;;;;;3.70;2.40;;;;;;;26.59;32.99;99178.20;124904;1093;64265;-82
2021/06/10 09:53:05;;;;;;;2.27;1.70;;;;;;;26.57;32.97;99183.89;124967;1093;64303;-85
2021/06/10 09:55:45;;;;;;;3.85;2.70;;;;;;;26.37;33.25;99180.98;124999;1093;64271;-83
2021/06/10 09:58:12;;;;;;;4.95;2.40;;;;;;;26.22;33.57;99182.97;124996;1093;64699;-84
2021/06/10 10:00:46;;;;;;;2.70;2.50;;;;;;;26.47;33.12;99183.36;124978;1093;64181;-84
2021/06/10 10:03:29;;;;;;;4.00;2.50;;;;;;;26.49;32.70;99184.02;124990;1093;64287;-85
2021/06/10 10:06:05;;;;;;;6.50;2.70;;;;;;;26.53;33.24;99181.75;124984;1092;64290;-83
2021/06/10 10:08:34;;;;;;;2.20;2.10;;;;;;;26.76;33.40;99176.83;125010;1093;64270;-83
2021/06/10 10:11:03;;;;;;;;;;;;;;;26.74;33.05;99173.45;124942;1093;64258;-83
2021/06/10 10:13:32;;;;;;;5.17;2.63;;;;;;;26.62;33.21;99175.92;125018;1093;64284;-83
2021/06/10 10:16:04;;;;;;;2.55;2.18;;;;;;;26.69;32.60;99182.25;125005;1093;64267;-83
2021/06/10 10:18:31;;;;;;;3.67;2.50;;;;;;;26.75;32.72;99177.86;124969;1093;64283;-84
2021/06/10 10:21:01;;;;;;;3.30;2.60;;;;;;;26.83;32.49;99168.64;124906;1093;64287;-85
2021/06/10 10:23:29;;;;;;;3.83;2.60;;;;;;;26.83;32.68;99169.51;124941;1093;64283;-86
2021/06/10 10:25:59;;;;;;;2.13;2.03;;;;;;;26.83;31.76;99157.70;124962;1092;64348;-84
2021/06/10 10:28:33;;;;;;;4.50;2.53;;;;;;;26.84;31.93;99153.94;125016;1093;64356;-84
2021/06/10 10:31:04;;;;;;;3.60;2.30;;;;;;;26.75;31.47;99155.98;124954;1093;64440;-84
2021/06/10 10:33:31;;;;;;;2.20;2.00;;;;;;;26.86;32.32;99162.79;125051;1093;64306;-84
2021/06/10 10:36:03;;;;;;;3.30;2.43;;;;;;;26.79;30.97;99151.80;124935;1093;64251;-84
2021/06/10 10:38:39;;;;;;;2.60;1.90;;;;;;;26.76;31.63;99152.22;125024;1092;64265;-84
2021/06/10 10:41:11;;;;;;;2.57;2.37;;;;;;;26.79;30.74;99153.70;125080;1093;64272;-83
2021/06/10 10:43:39;;;;;;;3.85;2.50;;;;;;;26.54;32.00;99156.95;125100;1093;64312;-83
2021/06/10 10:46:14;;;;;;;3.87;2.40;;;;;;;26.25;31.73;99149.78;125081;1092;64297;-83
2021/06/10 10:48:44;;;;;;;3.73;2.20;;;;;;;26.03;32.29;99151.74;125452;1093;64364;-83
2021/06/10 10:51:21;;;;;;;;;;;;;;;26.21;32.33;99143.89;125648;1093;64165;-83
2021/06/10 10:53:55;;;;;;;2.40;2.17;;;;;;;26.45;31.87;99141.72;125504;1093;64284;-85
2021/06/10 10:56:35;;;;;;;2.73;2.03;;;;;;;26.67;32.63;99132.42;125354;1093;64395;-85
2021/06/10 10:59:16;;;;;;;2.10;1.60;;;;;;;26.79;32.83;99118.16;125300;1093;64273;-83
2021/06/10 11:02:07;;;;;;;2.13;1.83;;;;;;;26.50;30.74;99133.77;125105;1093;64297;-83
2021/06/10 11:04:55;;;;;;;2.70;2.10;;;;;;;26.17;31.49;99139.88;124939;1093;64284;-84
2021/06/10 11:07:35;;;;;;;2.27;2.07;;;;;;;26.11;31.12;99131.63;124959;1093;64615;-82
2021/06/10 11:10:08;;;;;;;4.53;2.30;;;;;;;26.22;30.64;99120.14;125007;1093;64325;-84
2021/06/10 11:12:44;;;;;;;2.40;1.80;;;;;;;26.30;31.12;99121.87;124833;1093;64308;-83
2021/06/10 11:15:26;;;;;;;2.27;1.83;;;;;;;26.38;31.33;99121.70;124933;1093;64180;-83
2021/06/10 11:17:58;;;;;;;3.83;2.07;;;;;;;26.45;31.13;99128.05;124911;1093;64265;-83
2021/06/10 11:20:37;;;;;;;2.93;2.00;;;;;;;26.49;31.01;99124.72;125011;1093;64287;-84
2021/06/10 11:23:15;;;;;;;;;;;;;;;26.48;31.31;99114.81;125003;1093;64328;-84
2021/06/10 11:25:44;;;;;;;4.50;2.13;;;;;;;26.54;30.67;99115.09;124991;1093;64265;-84
2021/06/10 11:28:20;;;;;;;3.43;2.20;;;;;;;26.53;30.41;99100.58;124954;1093;64287;-83
2021/06/10 11:30:50;;;;;;;4.57;1.90;;;;;;;26.57;30.86;99106.48;124981;1093;64210;-83
2021/06/10 11:33:17;;;;;;;2.83;1.97;;;;;;;26.67;30.53;99104.21;124969;1093;64294;-84